Accueil
METAR-TAF:

METAR-TAF

Aéroports :

Base aérienne de Nörvenich

Nörvenich, Allemagne

latitude: 50-50N, longitude: 006-40E, altitude: 118 m

Observation

Le bulletin a été fait il y a 1 heure et 6 minutes, à 14:20 UTC
Vent 3 kt de nord/nord-est
Température 28°C
Humidité 20%
Pression 1014 hPa
Visibilité 10 km ou plus
Quelques nuages à une hauteur de 22000 ft
Nuages fragmentés à une hauteur de 25000 ft

METAR: ETNN 021420Z 03003KT 9999 FEW220 BKN250 28/03 Q1014 BLU+BLU+

Heure: 17:26 (15:26 UTC)

Prévision

Le bulletin a été fait il y a 2 heures et 23 minutes, à 13:03 UTC
Prévision valable du 02 à 14 UTC au 02 à 23 UTC
Vent 10 kt de est
Visibilité 10 km ou plus
Quelques nuages à une hauteur de 5000 ft
Nuages épars à une hauteur de 28000 ft

TAF: ETNN 021303Z 0214/0223 09010KT 9999 NSW FEW050 SCT280 BY ETGL

Observations et prévisions météorologiques de plus de 4000 aéroports (messages METAR et TAF).

Les stations disponibles sont représentées par des disques jaunes et rouges sur la carte.

Passer la souris dessus pour voir le nom de la station.

Cliquer dessus pour voir les observations et prévisions météorologiques.

Pour changer de carte: cliquez sur les boutons verts avec une croix noire pour zoomer, sur le bouton vert avec un tiret pour effectuer un zoom arrière, ou sur les flèches vertes pour les cartes adjacentes.


METAR-TAF: